sensor_id;sensor_type;location;lat;lon;timestamp;P1;durP1;ratioP1;P2;durP2;ratioP2
78122;SDS011;67376;44.802;10.332;2023-04-03T00:00:18;2.78;;;1.67;;
78122;SDS011;67376;44.802;10.332;2023-04-03T00:02:43;1.90;;;1.60;;
78122;SDS011;67376;44.802;10.332;2023-04-03T00:05:08;2.35;;;1.50;;
78122;SDS011;67376;44.802;10.332;2023-04-03T00:07:34;2.90;;;1.80;;
78122;SDS011;67376;44.802;10.332;2023-04-03T00:09:59;1.75;;;1.33;;
78122;SDS011;67376;44.802;10.332;2023-04-03T00:12:25;2.28;;;1.58;;
78122;SDS011;67376;44.802;10.332;2023-04-03T00:14:50;3.53;;;1.73;;
78122;SDS011;67376;44.802;10.332;2023-04-03T00:17:15;2.45;;;1.50;;
78122;SDS011;67376;44.802;10.332;2023-04-03T00:19:41;4.15;;;1.85;;
78122;SDS011;67376;44.802;10.332;2023-04-03T00:22:06;2.35;;;1.58;;
78122;SDS011;67376;44.802;10.332;2023-04-03T00:24:31;3.40;;;1.70;;
78122;SDS011;67376;44.802;10.332;2023-04-03T00:26:57;2.30;;;1.80;;
78122;SDS011;67376;44.802;10.332;2023-04-03T00:29:22;2.50;;;1.70;;
78122;SDS011;67376;44.802;10.332;2023-04-03T00:31:48;3.70;;;1.80;;
78122;SDS011;67376;44.802;10.332;2023-04-03T00:34:13;1.77;;;1.48;;
78122;SDS011;67376;44.802;10.332;2023-04-03T00:36:38;2.45;;;1.52;;
78122;SDS011;67376;44.802;10.332;2023-04-03T00:39:04;2.05;;;1.42;;
78122;SDS011;67376;44.802;10.332;2023-04-03T00:41:29;2.97;;;1.85;;
78122;SDS011;67376;44.802;10.332;2023-04-03T00:43:55;3.47;;;1.65;;
78122;SDS011;67376;44.802;10.332;2023-04-03T00:46:20;3.08;;;1.63;;
78122;SDS011;67376;44.802;10.332;2023-04-03T00:48:46;3.72;;;1.63;;
78122;SDS011;67376;44.802;10.332;2023-04-03T00:51:13;3.78;;;1.73;;
78122;SDS011;67376;44.802;10.332;2023-04-03T00:53:47;2.55;;;1.40;;
78122;SDS011;67376;44.802;10.332;2023-04-03T00:56:16;4.35;;;1.65;;
78122;SDS011;67376;44.802;10.332;2023-04-03T00:58:48;2.10;;;1.45;;
78122;SDS011;67376;44.802;10.332;2023-04-03T01:01:18;1.92;;;1.60;;
78122;SDS011;67376;44.802;10.332;2023-04-03T01:03:48;2.17;;;1.50;;
78122;SDS011;67376;44.802;10.332;2023-04-03T01:06:14;2.08;;;1.50;;
78122;SDS011;67376;44.802;10.332;2023-04-03T01:08:42;2.38;;;1.45;;
78122;SDS011;67376;44.802;10.332;2023-04-03T01:11:08;2.20;;;1.63;;
78122;SDS011;67376;44.802;10.332;2023-04-03T01:13:33;2.60;;;1.58;;
78122;SDS011;67376;44.802;10.332;2023-04-03T01:16:03;2.67;;;1.65;;
78122;SDS011;67376;44.802;10.332;2023-04-03T01:18:30;2.65;;;1.45;;
78122;SDS011;67376;44.802;10.332;2023-04-03T01:21:07;1.92;;;1.48;;
78122;SDS011;67376;44.802;10.332;2023-04-03T01:26:21;1.92;;;1.50;;
78122;SDS011;67376;44.802;10.332;2023-04-03T01:28:47;2.92;;;1.70;;
78122;SDS011;67376;44.802;10.332;2023-04-03T01:31:15;1.88;;;1.50;;
78122;SDS011;67376;44.802;10.332;2023-04-03T01:33:47;2.13;;;1.65;;
78122;SDS011;67376;44.802;10.332;2023-04-03T01:36:14;3.15;;;1.85;;
78122;SDS011;67376;44.802;10.332;2023-04-03T01:38:45;2.90;;;1.40;;
78122;SDS011;67376;44.802;10.332;2023-04-03T01:41:11;2.40;;;1.55;;
78122;SDS011;67376;44.802;10.332;2023-04-03T01:43:36;2.28;;;1.63;;
78122;SDS011;67376;44.802;10.332;2023-04-03T01:46:02;2.13;;;1.40;;
78122;SDS011;67376;44.802;10.332;2023-04-03T01:48:27;1.70;;;1.30;;
78122;SDS011;67376;44.802;10.332;2023-04-03T01:50:53;3.72;;;1.75;;
78122;SDS011;67376;44.802;10.332;2023-04-03T01:53:19;2.47;;;1.48;;
78122;SDS011;67376;44.802;10.332;2023-04-03T01:55:44;3.40;;;1.85;;
78122;SDS011;67376;44.802;10.332;2023-04-03T01:58:10;3.42;;;1.73;;
78122;SDS011;67376;44.802;10.332;2023-04-03T02:00:35;1.83;;;1.60;;
78122;SDS011;67376;44.802;10.332;2023-04-03T02:03:01;1.83;;;1.55;;
78122;SDS011;67376;44.802;10.332;2023-04-03T02:05:27;1.40;;;1.30;;
78122;SDS011;67376;44.802;10.332;2023-04-03T02:07:53;2.03;;;1.38;;
78122;SDS011;67376;44.802;10.332;2023-04-03T02:10:18;1.90;;;1.60;;
78122;SDS011;67376;44.802;10.332;2023-04-03T02:12:43;2.28;;;1.50;;
78122;SDS011;67376;44.802;10.332;2023-04-03T02:15:09;2.25;;;1.48;;
78122;SDS011;67376;44.802;10.332;2023-04-03T02:17:35;1.80;;;1.55;;
78122;SDS011;67376;44.802;10.332;2023-04-03T02:20:00;1.77;;;1.40;;
78122;SDS011;67376;44.802;10.332;2023-04-03T02:22:26;2.92;;;1.83;;
78122;SDS011;67376;44.802;10.332;2023-04-03T02:24:51;4.82;;;1.60;;
78122;SDS011;67376;44.802;10.332;2023-04-03T02:27:17;2.67;;;1.50;;
78122;SDS011;67376;44.802;10.332;2023-04-03T02:29:42;2.28;;;1.50;;
78122;SDS011;67376;44.802;10.332;2023-04-03T02:32:08;2.47;;;1.75;;
78122;SDS011;67376;44.802;10.332;2023-04-03T02:34:33;1.77;;;1.33;;
78122;SDS011;67376;44.802;10.332;2023-04-03T02:36:59;2.17;;;1.40;;
78122;SDS011;67376;44.802;10.332;2023-04-03T02:39:24;4.18;;;1.85;;
78122;SDS011;67376;44.802;10.332;2023-04-03T02:41:51;3.95;;;1.48;;
78122;SDS011;67376;44.802;10.332;2023-04-03T02:44:16;2.00;;;1.40;;
78122;SDS011;67376;44.802;10.332;2023-04-03T02:46:41;2.25;;;1.55;;
78122;SDS011;67376;44.802;10.332;2023-04-03T02:49:07;2.47;;;1.60;;
78122;SDS011;67376;44.802;10.332;2023-04-03T02:51:32;1.77;;;1.40;;
78122;SDS011;67376;44.802;10.332;2023-04-03T02:53:58;2.63;;;1.42;;
78122;SDS011;67376;44.802;10.332;2023-04-03T02:56:23;2.95;;;1.65;;
78122;SDS011;67376;44.802;10.332;2023-04-03T02:58:48;1.92;;;1.50;;
78122;SDS011;67376;44.802;10.332;2023-04-03T03:01:14;2.00;;;1.65;;
78122;SDS011;67376;44.802;10.332;2023-04-03T03:03:40;3.20;;;1.75;;
78122;SDS011;67376;44.802;10.332;2023-04-03T03:06:07;1.48;;;1.33;;
78122;SDS011;67376;44.802;10.332;2023-04-03T03:08:35;5.45;;;1.75;;
78122;SDS011;67376;44.802;10.332;2023-04-03T03:11:01;1.85;;;1.58;;
78122;SDS011;67376;44.802;10.332;2023-04-03T03:13:28;2.40;;;1.70;;
78122;SDS011;67376;44.802;10.332;2023-04-03T03:15:53;1.95;;;1.50;;
78122;SDS011;67376;44.802;10.332;2023-04-03T03:18:19;2.55;;;1.55;;
78122;SDS011;67376;44.802;10.332;2023-04-03T03:20:44;4.57;;;1.70;;
78122;SDS011;67376;44.802;10.332;2023-04-03T03:23:10;1.58;;;1.48;;
78122;SDS011;67376;44.802;10.332;2023-04-03T03:25:39;2.30;;;1.45;;
78122;SDS011;67376;44.802;10.332;2023-04-03T03:28:05;2.60;;;1.35;;
78122;SDS011;67376;44.802;10.332;2023-04-03T03:30:31;1.98;;;1.50;;
78122;SDS011;67376;44.802;10.332;2023-04-03T03:32:56;1.70;;;1.38;;
78122;SDS011;67376;44.802;10.332;2023-04-03T03:35:22;2.17;;;1.50;;
78122;SDS011;67376;44.802;10.332;2023-04-03T03:37:47;1.98;;;1.70;;
78122;SDS011;67376;44.802;10.332;2023-04-03T03:40:13;2.08;;;1.58;;
78122;SDS011;67376;44.802;10.332;2023-04-03T03:42:38;5.55;;;1.80;;
78122;SDS011;67376;44.802;10.332;2023-04-03T03:45:04;2.38;;;1.58;;
78122;SDS011;67376;44.802;10.332;2023-04-03T03:47:30;1.67;;;1.52;;
78122;SDS011;67376;44.802;10.332;2023-04-03T03:49:56;2.75;;;1.65;;
78122;SDS011;67376;44.802;10.332;2023-04-03T03:52:21;1.88;;;1.30;;
78122;SDS011;67376;44.802;10.332;2023-04-03T03:54:46;3.22;;;1.60;;
78122;SDS011;67376;44.802;10.332;2023-04-03T03:57:12;2.47;;;1.60;;
78122;SDS011;67376;44.802;10.332;2023-04-03T03:59:37;2.10;;;1.60;;
78122;SDS011;67376;44.802;10.332;2023-04-03T04:02:03;3.17;;;1.58;;
78122;SDS011;67376;44.802;10.332;2023-04-03T04:04:28;2.45;;;1.70;;
78122;SDS011;67376;44.802;10.332;2023-04-03T04:06:54;2.05;;;1.52;;
78122;SDS011;67376;44.802;10.332;2023-04-03T04:09:19;2.63;;;1.60;;
78122;SDS011;67376;44.802;10.332;2023-04-03T04:11:45;2.05;;;1.33;;
78122;SDS011;67376;44.802;10.332;2023-04-03T04:14:10;2.70;;;1.80;;
78122;SDS011;67376;44.802;10.332;2023-04-03T04:16:37;2.50;;;1.70;;
78122;SDS011;67376;44.802;10.332;2023-04-03T04:19:03;2.65;;;1.65;;
78122;SDS011;67376;44.802;10.332;2023-04-03T04:21:28;1.95;;;1.45;;
78122;SDS011;67376;44.802;10.332;2023-04-03T04:23:53;1.70;;;1.50;;
78122;SDS011;67376;44.802;10.332;2023-04-03T04:26:19;2.75;;;1.73;;
78122;SDS011;67376;44.802;10.332;2023-04-03T04:28:45;1.88;;;1.55;;
78122;SDS011;67376;44.802;10.332;2023-04-03T04:31:10;2.33;;;1.63;;
78122;SDS011;67376;44.802;10.332;2023-04-03T04:33:35;2.38;;;1.65;;
78122;SDS011;67376;44.802;10.332;2023-04-03T04:36:01;2.05;;;1.70;;
78122;SDS011;67376;44.802;10.332;2023-04-03T04:38:26;1.50;;;1.40;;
78122;SDS011;67376;44.802;10.332;2023-04-03T04:40:52;1.83;;;1.48;;
78122;SDS011;67376;44.802;10.332;2023-04-03T04:43:17;1.98;;;1.40;;
78122;SDS011;67376;44.802;10.332;2023-04-03T04:45:43;1.77;;;1.58;;
78122;SDS011;67376;44.802;10.332;2023-04-03T04:48:08;2.47;;;1.50;;
78122;SDS011;67376;44.802;10.332;2023-04-03T04:50:34;2.85;;;1.50;;
78122;SDS011;67376;44.802;10.332;2023-04-03T04:52:59;2.22;;;1.65;;
78122;SDS011;67376;44.802;10.332;2023-04-03T04:55:25;3.20;;;1.42;;
78122;SDS011;67376;44.802;10.332;2023-04-03T04:57:50;5.97;;;1.40;;
78122;SDS011;67376;44.802;10.332;2023-04-03T05:00:17;1.30;;;1.20;;
78122;SDS011;67376;44.802;10.332;2023-04-03T05:02:43;2.15;;;1.35;;
78122;SDS011;67376;44.802;10.332;2023-04-03T05:05:08;1.80;;;1.55;;
78122;SDS011;67376;44.802;10.332;2023-04-03T05:07:34;2.97;;;1.55;;
78122;SDS011;67376;44.802;10.332;2023-04-03T05:10:00;1.55;;;1.33;;
78122;SDS011;67376;44.802;10.332;2023-04-03T05:12:27;2.85;;;1.55;;
78122;SDS011;67376;44.802;10.332;2023-04-03T05:14:53;3.97;;;1.42;;
78122;SDS011;67376;44.802;10.332;2023-04-03T05:17:18;2.33;;;1.23;;
78122;SDS011;67376;44.802;10.332;2023-04-03T05:19:43;2.45;;;1.50;;
78122;SDS011;67376;44.802;10.332;2023-04-03T05:22:09;2.75;;;1.70;;
78122;SDS011;67376;44.802;10.332;2023-04-03T05:24:34;4.20;;;1.70;;
78122;SDS011;67376;44.802;10.332;2023-04-03T05:27:00;1.88;;;1.42;;
78122;SDS011;67376;44.802;10.332;2023-04-03T05:29:26;2.95;;;1.50;;
78122;SDS011;67376;44.802;10.332;2023-04-03T05:31:51;3.50;;;1.40;;
78122;SDS011;67376;44.802;10.332;2023-04-03T05:34:17;2.72;;;1.60;;
78122;SDS011;67376;44.802;10.332;2023-04-03T05:36:42;2.42;;;1.58;;
78122;SDS011;67376;44.802;10.332;2023-04-03T05:39:08;1.73;;;1.48;;
78122;SDS011;67376;44.802;10.332;2023-04-03T05:41:33;3.35;;;1.70;;
78122;SDS011;67376;44.802;10.332;2023-04-03T05:43:58;2.30;;;1.75;;
78122;SDS011;67376;44.802;10.332;2023-04-03T05:46:24;4.72;;;2.55;;
78122;SDS011;67376;44.802;10.332;2023-04-03T05:48:50;3.20;;;1.80;;
78122;SDS011;67376;44.802;10.332;2023-04-03T05:51:17;3.35;;;1.85;;
78122;SDS011;67376;44.802;10.332;2023-04-03T05:53:44;3.83;;;2.47;;
78122;SDS011;67376;44.802;10.332;2023-04-03T05:56:12;7.18;;;2.63;;
78122;SDS011;67376;44.802;10.332;2023-04-03T05:58:38;3.60;;;2.63;;
78122;SDS011;67376;44.802;10.332;2023-04-03T06:01:04;4.55;;;2.28;;
78122;SDS011;67376;44.802;10.332;2023-04-03T06:03:30;7.60;;;2.28;;
78122;SDS011;67376;44.802;10.332;2023-04-03T06:05:56;4.78;;;2.25;;
78122;SDS011;67376;44.802;10.332;2023-04-03T06:08:22;5.70;;;2.45;;
78122;SDS011;67376;44.802;10.332;2023-04-03T06:10:48;5.20;;;2.30;;
78122;SDS011;67376;44.802;10.332;2023-04-03T06:13:15;4.35;;;2.25;;
78122;SDS011;67376;44.802;10.332;2023-04-03T06:15:40;3.90;;;2.22;;
78122;SDS011;67376;44.802;10.332;2023-04-03T06:18:06;2.95;;;1.90;;
78122;SDS011;67376;44.802;10.332;2023-04-03T06:20:31;4.10;;;1.88;;
78122;SDS011;67376;44.802;10.332;2023-04-03T06:22:57;4.25;;;1.80;;
78122;SDS011;67376;44.802;10.332;2023-04-03T06:25:22;3.00;;;2.08;;
78122;SDS011;67376;44.802;10.332;2023-04-03T06:27:48;2.55;;;1.85;;
78122;SDS011;67376;44.802;10.332;2023-04-03T06:30:13;2.33;;;1.60;;
78122;SDS011;67376;44.802;10.332;2023-04-03T06:32:39;4.00;;;1.90;;
78122;SDS011;67376;44.802;10.332;2023-04-03T06:35:04;2.80;;;1.88;;
78122;SDS011;67376;44.802;10.332;2023-04-03T06:37:30;6.50;;;1.92;;
78122;SDS011;67376;44.802;10.332;2023-04-03T06:39:57;2.80;;;1.83;;
78122;SDS011;67376;44.802;10.332;2023-04-03T06:42:23;3.55;;;1.85;;
78122;SDS011;67376;44.802;10.332;2023-04-03T06:44:48;3.85;;;1.75;;
78122;SDS011;67376;44.802;10.332;2023-04-03T06:47:14;3.90;;;1.80;;
78122;SDS011;67376;44.802;10.332;2023-04-03T06:49:41;2.58;;;1.90;;
78122;SDS011;67376;44.802;10.332;2023-04-03T06:52:07;2.85;;;1.67;;
78122;SDS011;67376;44.802;10.332;2023-04-03T06:54:32;2.95;;;1.77;;
78122;SDS011;67376;44.802;10.332;2023-04-03T06:56:58;5.35;;;2.03;;
78122;SDS011;67376;44.802;10.332;2023-04-03T06:59:24;2.45;;;1.60;;
78122;SDS011;67376;44.802;10.332;2023-04-03T07:01:49;2.92;;;1.88;;
78122;SDS011;67376;44.802;10.332;2023-04-03T07:04:15;2.92;;;1.80;;
78122;SDS011;67376;44.802;10.332;2023-04-03T07:06:41;4.43;;;2.00;;
78122;SDS011;67376;44.802;10.332;2023-04-03T07:09:07;2.40;;;2.10;;
78122;SDS011;67376;44.802;10.332;2023-04-03T07:11:34;2.20;;;1.65;;
78122;SDS011;67376;44.802;10.332;2023-04-03T07:14:01;2.70;;;1.85;;
78122;SDS011;67376;44.802;10.332;2023-04-03T07:16:26;3.05;;;1.73;;
78122;SDS011;67376;44.802;10.332;2023-04-03T07:18:52;5.03;;;1.90;;
78122;SDS011;67376;44.802;10.332;2023-04-03T07:21:17;2.80;;;1.73;;
78122;SDS011;67376;44.802;10.332;2023-04-03T07:23:42;4.95;;;2.17;;
78122;SDS011;67376;44.802;10.332;2023-04-03T07:26:08;2.50;;;1.80;;
78122;SDS011;67376;44.802;10.332;2023-04-03T07:28:34;3.72;;;1.77;;
78122;SDS011;67376;44.802;10.332;2023-04-03T07:31:01;2.92;;;1.90;;
78122;SDS011;67376;44.802;10.332;2023-04-03T07:33:31;3.53;;;2.00;;
78122;SDS011;67376;44.802;10.332;2023-04-03T07:35:58;3.90;;;2.10;;
78122;SDS011;67376;44.802;10.332;2023-04-03T07:38:23;4.78;;;2.30;;
78122;SDS011;67376;44.802;10.332;2023-04-03T07:40:49;3.53;;;2.10;;
78122;SDS011;67376;44.802;10.332;2023-04-03T07:43:17;3.92;;;1.80;;
78122;SDS011;67376;44.802;10.332;2023-04-03T07:45:45;5.85;;;2.10;;
78122;SDS011;67376;44.802;10.332;2023-04-03T07:48:12;3.38;;;1.98;;
78122;SDS011;67376;44.802;10.332;2023-04-03T07:50:41;3.67;;;2.45;;
78122;SDS011;67376;44.802;10.332;2023-04-03T07:53:07;4.45;;;3.58;;
78122;SDS011;67376;44.802;10.332;2023-04-03T07:55:32;5.95;;;2.75;;
78122;SDS011;67376;44.802;10.332;2023-04-03T07:57:58;3.65;;;2.30;;
78122;SDS011;67376;44.802;10.332;2023-04-03T08:00:24;4.35;;;2.50;;
78122;SDS011;67376;44.802;10.332;2023-04-03T08:02:50;3.05;;;2.13;;
78122;SDS011;67376;44.802;10.332;2023-04-03T08:05:17;5.60;;;3.30;;
78122;SDS011;67376;44.802;10.332;2023-04-03T08:07:44;5.80;;;2.88;;
78122;SDS011;67376;44.802;10.332;2023-04-03T08:10:09;4.30;;;3.17;;
78122;SDS011;67376;44.802;10.332;2023-04-03T08:12:34;6.40;;;3.63;;
78122;SDS011;67376;44.802;10.332;2023-04-03T08:15:02;6.68;;;3.38;;
78122;SDS011;67376;44.802;10.332;2023-04-03T08:17:28;4.45;;;3.53;;
78122;SDS011;67376;44.802;10.332;2023-04-03T08:19:53;6.07;;;3.60;;
78122;SDS011;67376;44.802;10.332;2023-04-03T08:22:19;5.78;;;3.80;;
78122;SDS011;67376;44.802;10.332;2023-04-03T08:24:44;5.90;;;3.47;;
78122;SDS011;67376;44.802;10.332;2023-04-03T08:27:10;5.55;;;3.33;;
78122;SDS011;67376;44.802;10.332;2023-04-03T08:29:35;7.75;;;3.95;;
78122;SDS011;67376;44.802;10.332;2023-04-03T08:32:02;4.90;;;3.22;;
78122;SDS011;67376;44.802;10.332;2023-04-03T08:34:28;5.80;;;3.95;;
78122;SDS011;67376;44.802;10.332;2023-04-03T08:36:54;5.88;;;3.63;;
78122;SDS011;67376;44.802;10.332;2023-04-03T08:39:20;4.57;;;2.83;;
78122;SDS011;67376;44.802;10.332;2023-04-03T08:41:46;5.03;;;3.00;;
78122;SDS011;67376;44.802;10.332;2023-04-03T08:49:30;4.35;;;2.60;;
78122;SDS011;67376;44.802;10.332;2023-04-03T08:51:59;5.53;;;2.92;;
78122;SDS011;67376;44.802;10.332;2023-04-03T08:57:31;6.28;;;3.60;;
78122;SDS011;67376;44.802;10.332;2023-04-03T09:00:00;5.95;;;3.10;;
78122;SDS011;67376;44.802;10.332;2023-04-03T09:02:44;6.28;;;3.10;;
78122;SDS011;67376;44.802;10.332;2023-04-03T09:05:13;6.53;;;2.90;;
78122;SDS011;67376;44.802;10.332;2023-04-03T09:10:29;3.83;;;2.88;;
78122;SDS011;67376;44.802;10.332;2023-04-03T09:13:03;5.68;;;2.88;;
78122;SDS011;67376;44.802;10.332;2023-04-03T09:15:34;5.70;;;3.22;;
78122;SDS011;67376;44.802;10.332;2023-04-03T09:23:43;5.07;;;2.58;;
78122;SDS011;67376;44.802;10.332;2023-04-03T09:26:30;4.88;;;2.75;;
78122;SDS011;67376;44.802;10.332;2023-04-03T09:29:08;5.82;;;2.88;;
78122;SDS011;67376;44.802;10.332;2023-04-03T09:31:42;4.68;;;2.30;;
78122;SDS011;67376;44.802;10.332;2023-04-03T09:34:17;4.20;;;2.50;;
78122;SDS011;67376;44.802;10.332;2023-04-03T09:36:49;3.13;;;2.22;;
78122;SDS011;67376;44.802;10.332;2023-04-03T09:39:17;4.47;;;2.22;;
78122;SDS011;67376;44.802;10.332;2023-04-03T09:44:23;4.30;;;2.13;;
78122;SDS011;67376;44.802;10.332;2023-04-03T09:46:50;5.50;;;2.50;;
78122;SDS011;67376;44.802;10.332;2023-04-03T09:49:16;3.88;;;2.40;;
78122;SDS011;67376;44.802;10.332;2023-04-03T09:51:42;4.13;;;2.47;;
78122;SDS011;67376;44.802;10.332;2023-04-03T09:54:25;6.22;;;2.50;;
78122;SDS011;67376;44.802;10.332;2023-04-03T09:57:07;4.15;;;2.28;;
78122;SDS011;67376;44.802;10.332;2023-04-03T09:59:35;3.00;;;2.30;;
78122;SDS011;67376;44.802;10.332;2023-04-03T10:02:17;4.53;;;2.25;;
78122;SDS011;67376;44.802;10.332;2023-04-03T10:04:46;3.17;;;1.80;;
78122;SDS011;67376;44.802;10.332;2023-04-03T10:09:59;2.78;;;2.13;;
78122;SDS011;67376;44.802;10.332;2023-04-03T10:12:28;3.03;;;2.20;;
78122;SDS011;67376;44.802;10.332;2023-04-03T10:14:58;3.38;;;2.15;;
78122;SDS011;67376;44.802;10.332;2023-04-03T10:25:42;3.38;;;1.70;;
78122;SDS011;67376;44.802;10.332;2023-04-03T10:33:51;4.10;;;2.03;;
78122;SDS011;67376;44.802;10.332;2023-04-03T10:47:21;3.60;;;2.40;;
78122;SDS011;67376;44.802;10.332;2023-04-03T10:52:30;3.58;;;1.80;;
78122;SDS011;67376;44.802;10.332;2023-04-03T10:57:39;2.05;;;1.63;;
78122;SDS011;67376;44.802;10.332;2023-04-03T11:00:07;3.72;;;1.73;;
78122;SDS011;67376;44.802;10.332;2023-04-03T11:02:48;4.00;;;1.65;;
78122;SDS011;67376;44.802;10.332;2023-04-03T11:05:22;2.53;;;1.75;;
78122;SDS011;67376;44.802;10.332;2023-04-03T11:07:56;2.40;;;1.75;;
78122;SDS011;67376;44.802;10.332;2023-04-03T11:13:38;2.90;;;1.90;;
78122;SDS011;67376;44.802;10.332;2023-04-03T11:18:59;5.68;;;1.95;;
78122;SDS011;67376;44.802;10.332;2023-04-03T11:21:34;2.10;;;1.58;;
78122;SDS011;67376;44.802;10.332;2023-04-03T11:24:05;3.55;;;1.90;;
78122;SDS011;67376;44.802;10.332;2023-04-03T11:26:40;4.15;;;1.85;;
78122;SDS011;67376;44.802;10.332;2023-04-03T11:29:12;3.92;;;1.55;;
78122;SDS011;67376;44.802;10.332;2023-04-03T11:34:34;3.00;;;1.65;;
78122;SDS011;67376;44.802;10.332;2023-04-03T11:39:51;2.40;;;1.60;;
78122;SDS011;67376;44.802;10.332;2023-04-03T11:53:44;3.42;;;1.60;;
78122;SDS011;67376;44.802;10.332;2023-04-03T11:55:59;1.60;;;1.23;;
78122;SDS011;67376;44.802;10.332;2023-04-03T11:58:32;2.15;;;1.58;;
78122;SDS011;67376;44.802;10.332;2023-04-03T12:05:57;2.33;;;1.38;;
78122;SDS011;67376;44.802;10.332;2023-04-03T12:40:15;2.05;;;1.23;;
78122;SDS011;67376;44.802;10.332;2023-04-03T12:45:40;2.65;;;1.33;;
78122;SDS011;67376;44.802;10.332;2023-04-03T12:48:12;1.83;;;1.23;;
78122;SDS011;67376;44.802;10.332;2023-04-03T12:50:40;1.42;;;1.23;;
78122;SDS011;67376;44.802;10.332;2023-04-03T12:53:10;2.17;;;0.93;;
78122;SDS011;67376;44.802;10.332;2023-04-03T12:55:38;1.92;;;1.20;;
78122;SDS011;67376;44.802;10.332;2023-04-03T13:01:44;1.67;;;1.20;;
78122;SDS011;67376;44.802;10.332;2023-04-03T13:03:49;1.42;;;1.20;;
78122;SDS011;67376;44.802;10.332;2023-04-03T13:06:21;1.33;;;1.02;;
78122;SDS011;67376;44.802;10.332;2023-04-03T13:08:59;1.75;;;0.93;;
78122;SDS011;67376;44.802;10.332;2023-04-03T13:11:36;3.60;;;1.40;;
78122;SDS011;67376;44.802;10.332;2023-04-03T13:14:14;1.35;;;1.10;;
78122;SDS011;67376;44.802;10.332;2023-04-03T13:16:52;4.75;;;1.27;;
78122;SDS011;67376;44.802;10.332;2023-04-03T13:19:19;1.48;;;1.33;;
78122;SDS011;67376;44.802;10.332;2023-04-03T13:21:45;1.75;;;1.25;;
78122;SDS011;67376;44.802;10.332;2023-04-03T13:24:11;1.17;;;1.05;;
78122;SDS011;67376;44.802;10.332;2023-04-03T13:26:38;1.02;;;0.93;;
78122;SDS011;67376;44.802;10.332;2023-04-03T13:29:07;1.38;;;1.20;;
78122;SDS011;67376;44.802;10.332;2023-04-03T13:31:45;2.45;;;1.38;;
78122;SDS011;67376;44.802;10.332;2023-04-03T13:34:16;2.65;;;1.65;;
78122;SDS011;67376;44.802;10.332;2023-04-03T13:36:46;1.40;;;1.30;;
78122;SDS011;67376;44.802;10.332;2023-04-03T13:39:32;1.95;;;1.15;;
78122;SDS011;67376;44.802;10.332;2023-04-03T13:44:48;1.70;;;1.42;;
78122;SDS011;67376;44.802;10.332;2023-04-03T13:47:37;1.67;;;1.17;;
78122;SDS011;67376;44.802;10.332;2023-04-03T13:50:25;4.00;;;1.13;;
78122;SDS011;67376;44.802;10.332;2023-04-03T13:53:00;1.80;;;1.20;;
78122;SDS011;67376;44.802;10.332;2023-04-03T13:55:29;1.65;;;1.20;;
78122;SDS011;67376;44.802;10.332;2023-04-03T14:00:29;1.98;;;1.20;;
78122;SDS011;67376;44.802;10.332;2023-04-03T14:03:19;2.67;;;1.20;;
78122;SDS011;67376;44.802;10.332;2023-04-03T14:05:51;3.00;;;1.13;;
78122;SDS011;67376;44.802;10.332;2023-04-03T14:08:17;2.10;;;1.30;;
78122;SDS011;67376;44.802;10.332;2023-04-03T14:10:43;1.90;;;1.30;;
78122;SDS011;67376;44.802;10.332;2023-04-03T14:13:11;1.58;;;1.20;;
78122;SDS011;67376;44.802;10.332;2023-04-03T14:15:39;2.10;;;1.27;;
78122;SDS011;67376;44.802;10.332;2023-04-03T14:18:04;2.30;;;1.27;;
78122;SDS011;67376;44.802;10.332;2023-04-03T14:20:29;3.53;;;1.40;;
78122;SDS011;67376;44.802;10.332;2023-04-03T14:22:55;4.25;;;1.67;;
78122;SDS011;67376;44.802;10.332;2023-04-03T14:25:20;1.80;;;1.30;;
78122;SDS011;67376;44.802;10.332;2023-04-03T14:27:49;2.60;;;1.45;;
78122;SDS011;67376;44.802;10.332;2023-04-03T14:30:50;1.40;;;1.30;;
78122;SDS011;67376;44.802;10.332;2023-04-03T14:33:10;3.53;;;1.33;;
78122;SDS011;67376;44.802;10.332;2023-04-03T14:35:39;2.85;;;1.38;;
78122;SDS011;67376;44.802;10.332;2023-04-03T14:38:06;4.70;;;1.30;;
78122;SDS011;67376;44.802;10.332;2023-04-03T14:40:47;3.38;;;1.73;;
78122;SDS011;67376;44.802;10.332;2023-04-03T14:43:12;1.67;;;1.30;;
78122;SDS011;67376;44.802;10.332;2023-04-03T14:45:38;2.90;;;1.40;;
78122;SDS011;67376;44.802;10.332;2023-04-03T14:48:04;2.75;;;1.23;;
78122;SDS011;67376;44.802;10.332;2023-04-03T14:50:34;2.60;;;1.30;;
78122;SDS011;67376;44.802;10.332;2023-04-03T14:53:00;3.03;;;1.30;;
78122;SDS011;67376;44.802;10.332;2023-04-03T14:55:25;3.00;;;1.40;;
78122;SDS011;67376;44.802;10.332;2023-04-03T14:57:51;4.97;;;1.45;;
78122;SDS011;67376;44.802;10.332;2023-04-03T15:00:19;2.22;;;1.08;;
78122;SDS011;67376;44.802;10.332;2023-04-03T15:02:45;3.45;;;1.40;;
78122;SDS011;67376;44.802;10.332;2023-04-03T15:05:12;2.08;;;1.35;;
78122;SDS011;67376;44.802;10.332;2023-04-03T15:07:40;3.17;;;1.30;;
78122;SDS011;67376;44.802;10.332;2023-04-03T15:10:18;3.90;;;1.20;;
78122;SDS011;67376;44.802;10.332;2023-04-03T15:12:51;2.75;;;1.23;;
78122;SDS011;67376;44.802;10.332;2023-04-03T15:15:18;2.10;;;1.50;;
78122;SDS011;67376;44.802;10.332;2023-04-03T15:17:45;1.95;;;1.10;;
78122;SDS011;67376;44.802;10.332;2023-04-03T15:20:16;3.58;;;1.20;;
78122;SDS011;67376;44.802;10.332;2023-04-03T15:22:43;4.05;;;1.30;;
78122;SDS011;67376;44.802;10.332;2023-04-03T15:25:09;3.55;;;1.33;;
78122;SDS011;67376;44.802;10.332;2023-04-03T15:27:35;1.40;;;1.27;;
78122;SDS011;67376;44.802;10.332;2023-04-03T15:30:02;2.05;;;1.30;;
78122;SDS011;67376;44.802;10.332;2023-04-03T15:32:28;2.20;;;1.10;;
78122;SDS011;67376;44.802;10.332;2023-04-03T15:34:54;1.42;;;1.17;;
78122;SDS011;67376;44.802;10.332;2023-04-03T15:37:20;1.98;;;1.13;;
78122;SDS011;67376;44.802;10.332;2023-04-03T15:39:45;3.55;;;1.60;;
78122;SDS011;67376;44.802;10.332;2023-04-03T15:42:11;2.47;;;1.15;;
78122;SDS011;67376;44.802;10.332;2023-04-03T15:44:37;2.58;;;1.23;;
78122;SDS011;67376;44.802;10.332;2023-04-03T15:47:03;2.22;;;1.27;;
78122;SDS011;67376;44.802;10.332;2023-04-03T15:49:29;1.42;;;1.27;;
78122;SDS011;67376;44.802;10.332;2023-04-03T15:51:56;1.48;;;1.20;;
78122;SDS011;67376;44.802;10.332;2023-04-03T15:54:21;2.03;;;1.30;;
78122;SDS011;67376;44.802;10.332;2023-04-03T15:56:49;2.55;;;1.30;;
78122;SDS011;67376;44.802;10.332;2023-04-03T15:59:14;3.03;;;1.33;;
78122;SDS011;67376;44.802;10.332;2023-04-03T16:01:40;2.85;;;1.08;;
78122;SDS011;67376;44.802;10.332;2023-04-03T16:04:07;4.18;;;1.23;;
78122;SDS011;67376;44.802;10.332;2023-04-03T16:06:33;1.75;;;1.17;;
78122;SDS011;67376;44.802;10.332;2023-04-03T16:08:59;2.75;;;1.38;;
78122;SDS011;67376;44.802;10.332;2023-04-03T16:11:25;1.70;;;1.15;;
78122;SDS011;67376;44.802;10.332;2023-04-03T16:13:51;3.10;;;1.38;;
78122;SDS011;67376;44.802;10.332;2023-04-03T16:16:17;1.92;;;0.85;;
78122;SDS011;67376;44.802;10.332;2023-04-03T16:18:42;2.30;;;1.30;;
78122;SDS011;67376;44.802;10.332;2023-04-03T16:21:08;2.03;;;1.20;;
78122;SDS011;67376;44.802;10.332;2023-04-03T16:23:34;1.60;;;1.05;;
78122;SDS011;67376;44.802;10.332;2023-04-03T16:26:00;1.77;;;1.00;;
78122;SDS011;67376;44.802;10.332;2023-04-03T16:28:25;2.03;;;1.30;;
78122;SDS011;67376;44.802;10.332;2023-04-03T16:30:51;3.13;;;1.20;;
78122;SDS011;67376;44.802;10.332;2023-04-03T16:33:16;1.90;;;1.10;;
78122;SDS011;67376;44.802;10.332;2023-04-03T16:35:42;1.02;;;0.90;;
78122;SDS011;67376;44.802;10.332;2023-04-03T16:38:08;2.17;;;1.13;;
78122;SDS011;67376;44.802;10.332;2023-04-03T16:40:34;2.42;;;1.20;;